createdAt,value
2022-12-29T00:00:38.506Z,53.96
2022-12-29T00:01:38.613Z,55.40
2022-12-29T00:02:38.614Z,53.40
2022-12-29T00:03:38.672Z,54.89
2022-12-29T00:04:38.406Z,50.79
2022-12-29T00:05:38.435Z,50.15
2022-12-29T00:06:38.412Z,51.01
2022-12-29T00:07:38.413Z,50.44
2022-12-29T00:08:38.488Z,46.22
2022-12-29T00:09:38.427Z,54.05
2022-12-29T00:10:38.346Z,56.21
2022-12-29T00:11:38.378Z,60.00
2022-12-29T00:12:38.342Z,54.30
2022-12-29T00:13:38.452Z,52.11
2022-12-29T00:14:38.349Z,48.24
2022-12-29T00:15:38.410Z,53.67
2022-12-29T00:16:38.359Z,54.97
2022-12-29T00:17:38.377Z,56.29
2022-12-29T00:18:38.274Z,53.12
2022-12-29T00:19:38.299Z,54.42
2022-12-29T00:20:38.291Z,52.95
2022-12-29T00:21:38.262Z,52.25
2022-12-29T00:22:38.834Z,54.18
2022-12-29T00:23:38.240Z,54.52
2022-12-29T00:24:38.252Z,58.05
2022-12-29T00:25:38.255Z,57.02
2022-12-29T00:26:38.274Z,59.68
2022-12-29T00:27:38.276Z,55.71
2022-12-29T00:28:38.181Z,54.68
2022-12-29T00:29:38.196Z,50.07
2022-12-29T00:30:38.145Z,51.21
2022-12-29T00:31:38.143Z,54.81
2022-12-29T00:32:38.154Z,52.10
2022-12-29T00:33:38.134Z,50.35
2022-12-29T00:34:38.218Z,54.44
2022-12-29T00:35:38.117Z,54.37
2022-12-29T00:36:38.084Z,50.73
2022-12-29T00:37:38.067Z,51.30
2022-12-29T00:38:38.108Z,56.88
2022-12-29T00:39:38.089Z,52.03
2022-12-29T00:40:38.315Z,56.79
2022-12-29T00:41:38.086Z,53.42
2022-12-29T00:42:38.093Z,52.97
2022-12-29T00:43:38.049Z,56.20
2022-12-29T00:44:38.020Z,53.12
2022-12-29T00:45:38.862Z,55.35
2022-12-29T00:46:38.065Z,48.66
2022-12-29T00:47:37.973Z,50.76
2022-12-29T00:48:38.001Z,50.67
2022-12-29T00:49:37.983Z,56.53
2022-12-29T00:50:38.057Z,50.73
2022-12-29T00:51:37.945Z,46.63
2022-12-29T00:52:38.004Z,51.40
2022-12-29T00:53:37.917Z,52.53
2022-12-29T00:54:37.976Z,58.81
2022-12-29T00:55:37.963Z,54.60
2022-12-29T00:56:37.897Z,51.95
2022-12-29T00:57:37.897Z,51.26
2022-12-29T00:58:37.910Z,49.72
2022-12-29T00:59:37.901Z,52.69
2022-12-29T01:00:37.886Z,53.33
2022-12-29T01:01:38.025Z,50.70
2022-12-29T01:02:37.947Z,48.27
2022-12-29T01:03:37.820Z,47.56
2022-12-29T01:04:37.812Z,53.15
2022-12-29T01:05:37.874Z,50.05
2022-12-29T01:06:37.825Z,49.38
2022-12-29T01:07:37.793Z,48.27
2022-12-29T01:08:37.866Z,51.98
2022-12-29T01:09:37.740Z,57.22
2022-12-29T01:10:37.977Z,51.51
2022-12-29T01:11:37.808Z,49.77
2022-12-29T01:12:37.781Z,51.15
2022-12-29T01:13:37.740Z,51.37
2022-12-29T01:14:37.691Z,54.65
2022-12-29T01:15:37.735Z,50.04
2022-12-29T01:16:37.751Z,50.70
2022-12-29T01:17:37.712Z,50.43
2022-12-29T01:18:37.693Z,51.23
2022-12-29T01:19:37.670Z,51.12
2022-12-29T01:20:37.673Z,51.65
2022-12-29T01:21:37.634Z,56.71
2022-12-29T01:22:38.314Z,58.18
2022-12-29T01:23:37.599Z,51.92
2022-12-29T01:24:37.620Z,54.48
2022-12-29T01:25:37.640Z,55.95
2022-12-29T01:26:37.606Z,53.00
2022-12-29T01:27:37.631Z,57.19
2022-12-29T01:28:37.581Z,53.91
2022-12-29T01:29:37.633Z,51.63
2022-12-29T01:30:37.579Z,54.49
2022-12-29T01:31:37.602Z,48.07
2022-12-29T01:32:37.538Z,48.73
2022-12-29T01:33:37.644Z,52.67
2022-12-29T01:34:37.479Z,56.10
2022-12-29T01:35:37.491Z,57.00
2022-12-29T01:36:37.462Z,49.35
2022-12-29T01:37:37.511Z,53.26
2022-12-29T01:38:37.571Z,54.51
2022-12-29T01:39:37.479Z,52.71
2022-12-29T01:40:37.479Z,55.68
2022-12-29T01:41:37.428Z,48.97
2022-12-29T01:42:37.467Z,55.84
2022-12-29T01:43:38.309Z,50.74
2022-12-29T01:44:37.466Z,53.80
2022-12-29T01:45:37.516Z,53.00
2022-12-29T01:46:37.442Z,52.66
2022-12-29T01:47:38.198Z,53.74
2022-12-29T01:48:37.392Z,52.97
2022-12-29T01:49:37.348Z,53.84
2022-12-29T01:50:37.412Z,52.97
2022-12-29T01:51:37.347Z,51.99
2022-12-29T01:52:37.380Z,56.69
2022-12-29T01:53:37.370Z,52.60
2022-12-29T01:54:37.360Z,54.83
2022-12-29T01:55:37.320Z,53.93
2022-12-29T01:56:37.255Z,53.91
2022-12-29T01:57:37.306Z,53.44
2022-12-29T01:58:37.311Z,51.60
2022-12-29T01:59:37.360Z,50.67
2022-12-29T02:00:37.332Z,52.65
2022-12-29T02:01:37.370Z,47.77
2022-12-29T02:02:37.379Z,48.57
2022-12-29T02:03:37.300Z,49.89
2022-12-29T02:04:37.205Z,56.42
2022-12-29T02:05:37.242Z,47.25
2022-12-29T02:06:37.225Z,47.06
2022-12-29T02:07:37.192Z,48.84
2022-12-29T02:08:37.204Z,45.70
2022-12-29T02:09:37.204Z,48.57
2022-12-29T02:10:37.196Z,51.16
2022-12-29T02:11:37.117Z,52.82
2022-12-29T02:12:37.148Z,50.58
2022-12-29T02:13:37.176Z,58.18
2022-12-29T02:14:37.119Z,55.63
2022-12-29T02:15:37.927Z,52.69
2022-12-29T02:16:37.235Z,46.70
2022-12-29T02:17:37.147Z,53.35
2022-12-29T02:18:37.058Z,53.23
2022-12-29T02:19:37.179Z,46.05
2022-12-29T02:20:37.075Z,50.10
2022-12-29T02:21:37.039Z,47.75
2022-12-29T02:22:37.086Z,50.76
2022-12-29T02:23:37.040Z,49.08
2022-12-29T02:24:37.020Z,48.55
2022-12-29T02:25:37.016Z,48.63
2022-12-29T02:26:36.995Z,54.87
2022-12-29T02:27:36.962Z,56.67
2022-12-29T02:28:36.963Z,50.88
2022-12-29T02:29:36.986Z,42.41
2022-12-29T02:30:36.971Z,46.12
2022-12-29T02:31:37.032Z,44.39
2022-12-29T02:32:36.916Z,45.99
2022-12-29T02:33:36.973Z,48.39
2022-12-29T02:34:36.921Z,48.52
2022-12-29T02:35:36.958Z,50.17
2022-12-29T02:36:36.918Z,47.71
2022-12-29T02:37:36.873Z,47.31
2022-12-29T02:38:36.959Z,51.80
2022-12-29T02:39:36.861Z,54.95
2022-12-29T02:40:36.845Z,47.59
2022-12-29T02:41:36.957Z,51.76
2022-12-29T02:42:36.826Z,57.45
2022-12-29T02:43:36.920Z,50.96
2022-12-29T02:44:36.812Z,51.70
2022-12-29T02:45:36.831Z,57.86
2022-12-29T02:46:36.810Z,57.73
2022-12-29T02:47:36.852Z,52.39
2022-12-29T02:48:36.811Z,49.59
2022-12-29T02:49:36.715Z,53.25
2022-12-29T02:50:36.769Z,49.95
2022-12-29T02:51:36.792Z,45.51
2022-12-29T02:52:36.767Z,54.39
2022-12-29T02:53:36.786Z,51.76
2022-12-29T02:54:37.699Z,54.82
2022-12-29T02:55:36.738Z,52.20
2022-12-29T02:56:36.709Z,45.43
2022-12-29T02:57:36.758Z,49.35
2022-12-29T02:58:36.703Z,52.96
2022-12-29T02:59:37.301Z,48.73
2022-12-29T03:00:36.677Z,51.55
2022-12-29T03:01:36.755Z,51.03
2022-12-29T03:02:36.791Z,47.58
2022-12-29T03:03:36.621Z,50.54
2022-12-29T03:04:36.629Z,50.42
2022-12-29T03:05:36.664Z,48.77
2022-12-29T03:06:36.592Z,45.14
2022-12-29T03:07:36.576Z,48.11
2022-12-29T03:08:36.750Z,43.36
2022-12-29T03:09:36.556Z,41.40
2022-12-29T03:10:36.560Z,47.75
2022-12-29T03:11:36.566Z,47.10
2022-12-29T03:12:36.513Z,41.55
2022-12-29T03:13:36.603Z,51.70
2022-12-29T03:14:36.519Z,44.01
2022-12-29T03:15:36.588Z,47.48
2022-12-29T03:16:36.581Z,51.19
2022-12-29T03:17:36.535Z,49.68
2022-12-29T03:18:36.494Z,54.71
2022-12-29T03:19:36.478Z,46.38
2022-12-29T03:20:36.473Z,50.52
2022-12-29T03:21:36.508Z,49.30
2022-12-29T03:22:36.507Z,42.69
2022-12-29T03:23:36.414Z,41.74
2022-12-29T03:24:36.449Z,47.21
2022-12-29T03:25:36.402Z,49.99
2022-12-29T03:26:36.388Z,47.40
2022-12-29T03:27:36.383Z,49.75
2022-12-29T03:28:36.377Z,54.38
2022-12-29T03:29:37.299Z,42.38
2022-12-29T03:30:36.349Z,50.63
2022-12-29T03:31:36.585Z,51.82
2022-12-29T03:32:36.326Z,47.90
2022-12-29T03:33:36.300Z,49.37
2022-12-29T03:34:36.333Z,51.21
2022-12-29T03:35:36.314Z,47.98
2022-12-29T03:36:36.326Z,43.04
2022-12-29T03:37:36.292Z,51.59
2022-12-29T03:38:36.318Z,45.91
2022-12-29T03:39:36.247Z,51.69
2022-12-29T03:40:36.339Z,52.63
2022-12-29T03:41:36.253Z,46.83
2022-12-29T03:42:36.231Z,52.43
2022-12-29T03:43:36.836Z,52.35
2022-12-29T03:44:36.183Z,49.28
2022-12-29T03:45:36.261Z,56.85
2022-12-29T03:46:36.310Z,47.31
2022-12-29T03:47:36.163Z,53.82
2022-12-29T03:48:36.257Z,51.88
2022-12-29T03:49:36.138Z,61.21
2022-12-29T03:50:36.814Z,51.65
2022-12-29T03:51:36.162Z,52.99
2022-12-29T03:52:36.140Z,48.76
2022-12-29T03:53:36.127Z,49.77
2022-12-29T03:54:36.261Z,55.18
2022-12-29T03:55:36.118Z,56.86
2022-12-29T03:56:36.112Z,54.56
2022-12-29T03:57:36.123Z,56.71
2022-12-29T03:58:36.024Z,52.87
2022-12-29T03:59:36.172Z,55.75
2022-12-29T04:00:36.051Z,50.56
2022-12-29T04:01:36.215Z,50.99
2022-12-29T04:02:36.232Z,51.86
2022-12-29T04:03:36.054Z,52.48
2022-12-29T04:04:36.017Z,53.87
2022-12-29T04:05:36.026Z,58.25
2022-12-29T04:06:36.008Z,48.13
2022-12-29T04:07:36.024Z,47.41
2022-12-29T04:08:36.010Z,46.82
2022-12-29T04:09:35.936Z,50.94
2022-12-29T04:10:35.930Z,52.86
2022-12-29T04:11:36.017Z,50.20
2022-12-29T04:12:35.941Z,52.21
2022-12-29T04:13:35.960Z,51.56
2022-12-29T04:14:35.854Z,51.48
2022-12-29T04:15:35.999Z,50.55
2022-12-29T04:16:35.940Z,49.21
2022-12-29T04:17:35.877Z,53.34
2022-12-29T04:18:35.894Z,55.36
2022-12-29T04:19:35.845Z,51.59
2022-12-29T04:20:35.882Z,54.99
2022-12-29T04:21:35.891Z,57.27
2022-12-29T04:22:35.831Z,57.90
2022-12-29T04:23:35.830Z,55.11
2022-12-29T04:24:35.868Z,51.75
2022-12-29T04:25:35.848Z,55.93
2022-12-29T04:26:35.842Z,54.04
2022-12-29T04:27:36.359Z,53.89
2022-12-29T04:28:35.772Z,55.80
2022-12-29T04:29:36.765Z,55.91
2022-12-29T04:30:35.753Z,53.36
2022-12-29T04:31:35.831Z,56.47
2022-12-29T04:32:35.745Z,53.88
2022-12-29T04:33:35.720Z,52.81
2022-12-29T04:34:35.755Z,54.53
2022-12-29T04:35:35.728Z,55.33
2022-12-29T04:36:35.706Z,46.59
2022-12-29T04:37:35.685Z,51.56
2022-12-29T04:38:35.706Z,54.39
2022-12-29T04:39:35.665Z,55.68
2022-12-29T04:40:35.681Z,53.30
2022-12-29T04:41:35.648Z,52.77
2022-12-29T04:42:35.659Z,55.34
2022-12-29T04:43:36.292Z,58.40
2022-12-29T04:44:38.676Z,56.77
2022-12-29T04:45:36.593Z,57.81
2022-12-29T04:46:35.717Z,60.02
2022-12-29T04:47:35.622Z,58.17
2022-12-29T04:48:35.629Z,57.94
2022-12-29T04:49:35.595Z,60.18
2022-12-29T04:50:35.591Z,56.40
2022-12-29T04:51:35.535Z,54.72
2022-12-29T04:52:35.557Z,55.34
2022-12-29T04:53:35.572Z,55.66
2022-12-29T04:54:35.481Z,60.65
2022-12-29T04:55:35.472Z,58.48
2022-12-29T04:56:35.527Z,55.19
2022-12-29T04:57:35.558Z,53.07
2022-12-29T04:58:35.526Z,56.13
2022-12-29T04:59:35.473Z,53.67
2022-12-29T05:00:35.473Z,55.70
2022-12-29T05:01:35.563Z,52.88
2022-12-29T05:02:35.776Z,56.30
2022-12-29T05:03:35.529Z,58.57
2022-12-29T05:04:36.274Z,54.54
2022-12-29T05:05:35.408Z,57.19
2022-12-29T05:06:35.431Z,56.45
2022-12-29T05:07:35.340Z,57.29
2022-12-29T05:08:36.189Z,56.22
2022-12-29T05:09:35.412Z,56.04
2022-12-29T05:10:35.377Z,58.85
2022-12-29T05:11:35.402Z,57.32
2022-12-29T05:12:35.327Z,55.46
2022-12-29T05:13:35.290Z,55.35
2022-12-29T05:14:35.288Z,55.45
2022-12-29T05:15:35.323Z,58.13
2022-12-29T05:16:35.349Z,62.07
2022-12-29T05:17:35.273Z,57.63
2022-12-29T05:18:35.253Z,58.67
2022-12-29T05:19:35.261Z,58.13
2022-12-29T05:20:37.885Z,60.56
2022-12-29T05:21:35.229Z,58.71
2022-12-29T05:22:35.228Z,60.53
2022-12-29T05:23:35.253Z,60.81
2022-12-29T05:24:35.198Z,59.22
2022-12-29T05:25:35.165Z,58.59
2022-12-29T05:26:35.191Z,58.70
2022-12-29T05:27:35.834Z,59.18
2022-12-29T05:28:35.117Z,58.98
2022-12-29T05:29:35.194Z,57.30
2022-12-29T05:30:35.095Z,57.77
2022-12-29T05:31:35.371Z,58.00
2022-12-29T05:32:35.115Z,61.16
2022-12-29T05:33:35.111Z,59.08
2022-12-29T05:34:35.050Z,60.80
2022-12-29T05:35:36.048Z,59.97
2022-12-29T05:36:38.087Z,61.95
2022-12-29T05:37:36.089Z,59.68
2022-12-29T05:38:35.114Z,57.54
2022-12-29T05:39:35.050Z,58.20
2022-12-29T05:40:35.164Z,60.43
2022-12-29T05:41:35.137Z,57.72
2022-12-29T05:42:34.997Z,58.14
2022-12-29T05:43:35.108Z,58.60
2022-12-29T05:44:35.003Z,61.49
2022-12-29T05:45:35.046Z,61.32
2022-12-29T05:46:35.052Z,60.35
2022-12-29T05:47:34.940Z,60.30
2022-12-29T05:48:38.119Z,60.16
2022-12-29T05:49:35.922Z,54.63
2022-12-29T05:50:36.051Z,57.09
2022-12-29T05:51:35.044Z,59.61
2022-12-29T05:52:34.897Z,61.58
2022-12-29T05:53:34.927Z,56.32
2022-12-29T05:54:34.917Z,59.28
2022-12-29T05:55:34.861Z,61.75
2022-12-29T05:56:34.899Z,58.72
2022-12-29T05:57:34.845Z,59.89
2022-12-29T05:58:34.848Z,63.07
2022-12-29T05:59:35.842Z,58.55
2022-12-29T06:00:34.820Z,59.99
2022-12-29T06:01:35.888Z,59.50
2022-12-29T06:02:35.081Z,59.49
2022-12-29T06:03:34.949Z,61.66
2022-12-29T06:04:34.782Z,60.81
2022-12-29T06:05:34.745Z,57.48
2022-12-29T06:06:35.342Z,59.59
2022-12-29T06:07:34.748Z,61.37
2022-12-29T06:08:34.854Z,59.84
2022-12-29T06:09:34.717Z,60.05
2022-12-29T06:10:34.773Z,58.50
2022-12-29T06:11:34.782Z,58.75
2022-12-29T06:12:35.800Z,58.40
2022-12-29T06:13:34.692Z,59.44
2022-12-29T06:14:35.686Z,56.50
2022-12-29T06:15:34.759Z,57.90
2022-12-29T06:16:34.731Z,58.63
2022-12-29T06:17:34.687Z,60.78
2022-12-29T06:18:34.669Z,59.85
2022-12-29T06:32:57.079Z,59.12
2022-12-29T06:34:00.420Z,57.39
2022-12-29T06:34:59.087Z,61.68
2022-12-29T06:35:58.381Z,61.61
2022-12-29T06:36:58.152Z,61.04
2022-12-29T06:37:58.127Z,61.34
2022-12-29T06:38:58.131Z,61.44
2022-12-29T06:39:58.112Z,60.51
2022-12-29T06:40:58.121Z,60.47
2022-12-29T06:41:58.153Z,59.06
2022-12-29T06:42:58.069Z,59.01
2022-12-29T06:43:58.298Z,61.31
2022-12-29T06:44:58.013Z,61.24
2022-12-29T06:45:58.138Z,60.84
2022-12-29T06:46:58.015Z,58.41
2022-12-29T06:47:58.037Z,59.88
2022-12-29T06:48:57.996Z,60.45
2022-12-29T06:49:57.969Z,58.31
2022-12-29T06:50:57.968Z,59.54
2022-12-29T06:51:57.983Z,60.42
2022-12-29T06:52:57.939Z,58.47
2022-12-29T06:53:58.055Z,59.48
2022-12-29T06:54:57.989Z,60.11
2022-12-29T06:55:57.884Z,58.62
2022-12-29T06:56:57.879Z,61.48
2022-12-29T06:57:57.990Z,57.62
2022-12-29T06:58:57.891Z,58.66
2022-12-29T06:59:57.858Z,59.81
2022-12-29T07:00:57.933Z,59.08
2022-12-29T07:01:58.079Z,58.99
2022-12-29T07:02:58.058Z,59.84
2022-12-29T07:03:57.807Z,60.69
2022-12-29T07:04:57.828Z,60.18
2022-12-29T07:05:57.811Z,59.92
2022-12-29T07:06:57.825Z,61.85
2022-12-29T07:07:57.826Z,60.98
2022-12-29T07:08:57.742Z,56.54
2022-12-29T07:09:57.875Z,59.55
2022-12-29T07:10:57.748Z,60.14
2022-12-29T07:11:57.797Z,61.34
2022-12-29T07:12:57.727Z,57.89
2022-12-29T07:14:04.503Z,61.30
2022-12-29T07:14:58.770Z,59.61
2022-12-29T07:15:57.701Z,57.96
2022-12-29T07:16:57.790Z,60.23
2022-12-29T07:17:57.728Z,61.74
2022-12-29T07:18:57.667Z,61.17
2022-12-29T07:19:57.670Z,59.36
2022-12-29T07:20:57.685Z,58.24
2022-12-29T07:21:57.853Z,60.65
2022-12-29T07:22:57.651Z,60.59
2022-12-29T07:23:57.618Z,61.45
2022-12-29T07:24:57.632Z,61.06
2022-12-29T07:25:57.653Z,59.31
2022-12-29T07:26:57.680Z,59.48
2022-12-29T07:27:57.637Z,60.63
2022-12-29T07:28:57.561Z,57.59
2022-12-29T07:29:57.687Z,57.64
2022-12-29T07:30:57.551Z,59.49
2022-12-29T07:31:57.721Z,60.00
2022-12-29T07:32:57.571Z,61.25
2022-12-29T07:33:57.524Z,60.10
2022-12-29T07:34:57.610Z,59.01
2022-12-29T07:35:57.509Z,59.43
2022-12-29T07:36:57.519Z,59.50
2022-12-29T07:37:57.636Z,60.54
2022-12-29T07:38:57.487Z,58.37
2022-12-29T07:39:57.435Z,58.47
2022-12-29T07:40:57.425Z,58.34
2022-12-29T07:42:04.274Z,59.95
2022-12-29T07:42:59.483Z,59.22
2022-12-29T07:43:57.449Z,60.68
2022-12-29T07:44:57.401Z,59.97
2022-12-29T07:45:57.445Z,60.06
2022-12-29T07:46:58.813Z,57.66
2022-12-29T07:47:57.460Z,59.45
2022-12-29T07:48:57.407Z,59.08
2022-12-29T07:49:57.410Z,61.02
2022-12-29T07:50:57.330Z,61.45
2022-12-29T07:51:57.427Z,57.48
2022-12-29T07:52:57.332Z,56.84
2022-12-29T07:53:57.427Z,60.00
2022-12-29T07:54:57.315Z,61.45
2022-12-29T07:55:57.297Z,61.78
2022-12-29T07:56:57.325Z,61.11
2022-12-29T07:57:57.289Z,61.80
2022-12-29T07:58:57.304Z,61.73
2022-12-29T07:59:57.243Z,60.23
2022-12-29T08:00:57.389Z,58.79
2022-12-29T08:01:57.371Z,59.60
2022-12-29T08:02:57.345Z,62.71
2022-12-29T08:03:57.813Z,61.49
2022-12-29T08:04:58.389Z,59.02
2022-12-29T08:05:57.317Z,59.74
2022-12-29T08:06:57.195Z,61.43
2022-12-29T08:07:57.283Z,60.78
2022-12-29T08:08:57.185Z,60.22
2022-12-29T08:09:57.235Z,60.60
2022-12-29T08:10:57.159Z,61.06
2022-12-29T08:11:57.204Z,58.97
2022-12-29T08:12:57.692Z,61.80
2022-12-29T08:13:57.162Z,60.73
2022-12-29T08:14:57.133Z,60.61
2022-12-29T08:15:57.138Z,60.30
2022-12-29T08:16:57.117Z,61.42
2022-12-29T08:17:57.142Z,61.01
2022-12-29T08:18:57.087Z,58.84
2022-12-29T08:19:57.081Z,57.23
2022-12-29T08:20:57.086Z,59.61
2022-12-29T08:21:57.028Z,55.47
2022-12-29T08:22:57.080Z,61.92
2022-12-29T08:23:57.016Z,63.56
2022-12-29T08:24:57.004Z,60.30
2022-12-29T08:25:56.989Z,60.58
2022-12-29T08:26:56.998Z,60.10
2022-12-29T08:27:57.028Z,61.04
2022-12-29T08:28:56.959Z,60.68
2022-12-29T08:29:56.952Z,59.16
2022-12-29T08:30:57.011Z,59.80
2022-12-29T08:31:56.978Z,60.42
2022-12-29T08:32:56.959Z,60.37
2022-12-29T08:33:56.953Z,62.72
2022-12-29T08:34:56.955Z,61.12
2022-12-29T08:35:56.965Z,59.31
2022-12-29T08:36:56.878Z,59.51
2022-12-29T08:37:56.944Z,61.19
2022-12-29T08:38:56.849Z,62.45
2022-12-29T08:39:56.912Z,62.58
2022-12-29T08:40:56.843Z,60.01
2022-12-29T08:41:56.831Z,59.14
2022-12-29T08:42:56.864Z,63.81
2022-12-29T08:43:56.790Z,64.70
2022-12-29T08:44:56.818Z,59.43
2022-12-29T08:45:57.903Z,60.76
2022-12-29T08:46:56.913Z,59.75
2022-12-29T08:47:56.774Z,57.85
2022-12-29T08:48:59.408Z,63.18
2022-12-29T08:49:56.748Z,61.17
2022-12-29T08:50:56.727Z,60.94
2022-12-29T08:51:56.800Z,61.55
2022-12-29T08:52:56.966Z,63.44
2022-12-29T08:53:56.825Z,62.26
2022-12-29T08:54:56.731Z,61.81
2022-12-29T08:56:00.834Z,62.52
2022-12-29T08:56:58.682Z,61.08
2022-12-29T08:57:56.712Z,60.71
2022-12-29T08:58:56.650Z,61.24
2022-12-29T08:59:56.713Z,64.37
2022-12-29T09:00:56.711Z,62.35
2022-12-29T09:01:56.701Z,64.81
2022-12-29T09:02:56.830Z,64.06
2022-12-29T09:04:58.699Z,61.46
2022-12-29T09:05:56.606Z,64.19
2022-12-29T09:06:56.643Z,62.74
2022-12-29T09:07:56.585Z,64.22
2022-12-29T09:08:56.572Z,62.63
2022-12-29T09:09:56.625Z,63.89
2022-12-29T09:10:56.513Z,62.05
2022-12-29T09:11:56.569Z,62.20
2022-12-29T09:12:56.584Z,61.01
2022-12-29T09:13:56.519Z,60.88
2022-12-29T09:14:56.558Z,61.01
2022-12-29T09:15:56.664Z,61.18
2022-12-29T09:16:57.106Z,61.02
2022-12-29T09:17:56.539Z,65.05
2022-12-29T09:18:56.498Z,62.83
2022-12-29T09:19:56.515Z,60.48
2022-12-29T09:20:56.449Z,60.97
2022-12-29T09:21:56.526Z,61.35
2022-12-29T09:22:56.503Z,62.43
2022-12-29T09:23:56.425Z,63.35
2022-12-29T09:24:56.494Z,64.13
2022-12-29T09:25:56.385Z,64.17
2022-12-29T09:26:56.490Z,62.51
2022-12-29T09:27:56.439Z,60.64
2022-12-29T09:36:29.968Z,61.96
2022-12-29T09:37:30.109Z,62.42
2022-12-29T09:38:29.830Z,62.24
2022-12-29T09:39:29.794Z,61.42
2022-12-29T09:40:29.799Z,62.03
2022-12-29T09:41:29.814Z,61.57
2022-12-29T09:42:29.778Z,62.39
2022-12-29T09:43:29.785Z,61.77
2022-12-29T09:44:29.802Z,61.60
2022-12-29T09:45:29.757Z,64.37
2022-12-29T09:46:29.799Z,61.90
2022-12-29T09:47:29.715Z,61.52
2022-12-29T09:48:29.776Z,62.49
2022-12-29T09:49:29.881Z,61.05
2022-12-29T09:50:29.760Z,63.34
2022-12-29T09:51:29.680Z,61.30
2022-12-29T09:52:29.666Z,61.60
2022-12-29T09:53:29.878Z,63.35
2022-12-29T09:54:29.778Z,60.08
2022-12-29T09:55:29.677Z,62.37
2022-12-29T09:56:29.645Z,61.05
2022-12-29T09:57:29.641Z,62.19
2022-12-29T09:58:29.631Z,61.58
2022-12-29T09:59:29.725Z,61.43
2022-12-29T10:00:30.672Z,63.03
2022-12-29T10:01:29.733Z,61.24
2022-12-29T10:02:29.677Z,62.88
2022-12-29T10:03:29.835Z,61.44
2022-12-29T10:04:29.617Z,63.78
2022-12-29T10:05:29.614Z,63.73
2022-12-29T10:06:29.612Z,62.37
2022-12-29T10:07:31.041Z,62.21
2022-12-29T10:08:30.917Z,62.39
2022-12-29T10:09:29.504Z,62.78
2022-12-29T10:10:29.517Z,63.93
2022-12-29T10:11:29.458Z,63.08
2022-12-29T10:12:29.729Z,62.90
2022-12-29T10:13:29.608Z,63.38
2022-12-29T10:14:29.433Z,62.27
2022-12-29T10:15:29.444Z,63.53
2022-12-29T10:16:29.633Z,62.42
2022-12-29T10:17:30.282Z,63.37
2022-12-29T10:18:29.484Z,60.80
2022-12-29T10:19:33.101Z,61.52
2022-12-29T10:20:30.399Z,61.85
2022-12-29T10:21:29.520Z,61.70
2022-12-29T10:22:29.368Z,61.53
2022-12-29T10:23:29.376Z,62.21
2022-12-29T10:24:29.382Z,61.86
2022-12-29T10:25:32.884Z,59.19
2022-12-29T10:26:30.351Z,60.94
2022-12-29T10:27:29.383Z,63.65
2022-12-29T10:28:29.453Z,63.38
2022-12-29T10:29:29.268Z,61.07
2022-12-29T10:30:29.391Z,61.29
2022-12-29T10:31:29.484Z,60.96
2022-12-29T10:32:29.261Z,60.83
2022-12-29T10:33:29.287Z,61.98
2022-12-29T10:34:29.328Z,61.23
2022-12-29T10:35:29.338Z,60.59
2022-12-29T10:36:29.250Z,63.47
2022-12-29T10:37:33.795Z,62.21
2022-12-29T10:38:31.272Z,61.58
2022-12-29T10:39:29.283Z,63.45
2022-12-29T10:40:30.171Z,62.74
2022-12-29T10:41:29.249Z,62.82
2022-12-29T10:42:29.187Z,61.35
2022-12-29T10:43:29.181Z,62.88
2022-12-29T10:44:29.208Z,62.81
2022-12-29T10:45:29.188Z,62.14
2022-12-29T10:46:29.175Z,62.45
2022-12-29T10:47:29.232Z,65.06
2022-12-29T10:48:31.987Z,61.50
2022-12-29T10:49:30.132Z,61.23
2022-12-29T10:50:29.159Z,63.48
2022-12-29T10:51:29.065Z,62.67
2022-12-29T10:52:29.120Z,61.74
2022-12-29T10:53:29.117Z,64.04
2022-12-29T10:54:29.174Z,63.31
2022-12-29T10:55:29.147Z,63.19
2022-12-29T10:56:29.006Z,62.70
2022-12-29T10:57:29.100Z,60.80
2022-12-29T10:58:29.091Z,63.77
2022-12-29T10:59:29.000Z,65.77
2022-12-29T11:00:29.073Z,63.75
2022-12-29T11:01:29.075Z,61.28
2022-12-29T11:02:29.114Z,63.97
2022-12-29T11:03:29.078Z,64.01
2022-12-29T11:04:28.994Z,63.90
2022-12-29T11:18:38.712Z,62.50
2022-12-29T11:19:41.133Z,62.21
2022-12-29T11:20:39.590Z,64.51
2022-12-29T11:21:38.392Z,62.98
2022-12-29T11:22:38.660Z,63.01
2022-12-29T11:23:38.466Z,64.32
2022-12-29T11:24:38.501Z,64.29
2022-12-29T11:25:38.449Z,63.43
2022-12-29T11:26:38.329Z,63.66
2022-12-29T11:27:38.553Z,64.51
2022-12-29T11:28:38.330Z,61.81
2022-12-29T11:29:38.390Z,61.71
2022-12-29T11:30:38.291Z,65.60
2022-12-29T11:31:38.406Z,64.51
2022-12-29T11:32:38.281Z,62.27
2022-12-29T11:33:38.300Z,62.56
2022-12-29T11:34:38.551Z,66.18
2022-12-29T11:35:38.283Z,63.62
2022-12-29T11:36:38.468Z,66.31
2022-12-29T11:37:38.645Z,61.27
2022-12-29T11:38:38.200Z,62.90
2022-12-29T11:39:38.311Z,66.13
2022-12-29T11:40:38.142Z,64.65
2022-12-29T11:41:38.217Z,63.25
2022-12-29T11:42:38.147Z,61.42
2022-12-29T11:43:38.620Z,60.74
2022-12-29T11:44:38.276Z,64.83
2022-12-29T11:45:38.305Z,64.21
2022-12-29T11:46:38.986Z,63.87
2022-12-29T11:47:38.180Z,65.49
2022-12-29T11:48:38.149Z,65.76
2022-12-29T11:49:38.409Z,64.35
2022-12-29T11:54:14.390Z,63.72
2022-12-29T11:55:14.244Z,63.31
2022-12-29T11:56:14.330Z,64.20
2022-12-29T11:57:14.223Z,64.41
2022-12-29T11:58:15.457Z,62.33
2022-12-29T11:59:15.436Z,64.75
2022-12-29T12:00:15.700Z,63.09
2022-12-29T12:01:15.483Z,64.79
2022-12-29T12:02:15.456Z,63.63
2022-12-29T12:03:15.510Z,64.44
2022-12-29T12:04:15.406Z,62.54
2022-12-29T12:05:15.279Z,64.23
2022-12-29T12:06:15.421Z,65.99
2022-12-29T12:07:15.349Z,64.69
2022-12-29T12:08:20.488Z,62.20
2022-12-29T12:09:17.317Z,64.06
2022-12-29T12:10:15.414Z,62.69
2022-12-29T12:11:15.250Z,64.08
2022-12-29T12:12:15.161Z,63.94
2022-12-29T12:13:15.249Z,64.38
2022-12-29T12:14:15.245Z,64.94
2022-12-29T12:15:15.348Z,63.54
2022-12-29T12:16:15.212Z,64.69
2022-12-29T12:17:15.147Z,62.49
2022-12-29T12:18:15.271Z,64.09
2022-12-29T12:19:15.219Z,63.95
2022-12-29T12:20:15.306Z,66.39
2022-12-29T12:21:15.101Z,62.36
2022-12-29T12:22:16.076Z,63.20
2022-12-29T12:23:15.172Z,62.79
2022-12-29T12:24:15.499Z,63.17
2022-12-29T12:25:15.201Z,63.81
2022-12-29T12:26:16.851Z,61.59
2022-12-29T12:27:15.059Z,60.74
2022-12-29T12:28:15.013Z,62.18
2022-12-29T12:29:15.950Z,61.02
2022-12-29T12:30:15.224Z,61.72
2022-12-29T12:31:15.310Z,61.26
2022-12-29T12:32:14.994Z,62.86
2022-12-29T12:33:14.983Z,64.76
2022-12-29T12:34:15.016Z,59.32
2022-12-29T12:35:21.312Z,59.42
2022-12-29T12:36:16.970Z,61.69
2022-12-29T12:37:14.935Z,63.22
2022-12-29T12:38:14.976Z,63.00
2022-12-29T12:39:14.947Z,60.83
2022-12-29T12:40:15.488Z,62.81
2022-12-29T12:41:21.353Z,62.11
2022-12-29T12:42:16.873Z,62.57
2022-12-29T12:43:14.962Z,62.39
2022-12-29T12:44:14.992Z,63.20
2022-12-29T12:45:14.878Z,63.45
2022-12-29T12:46:15.708Z,63.33
2022-12-29T12:47:14.945Z,63.95
2022-12-29T12:48:14.883Z,62.14
2022-12-29T12:49:15.267Z,61.68
2022-12-29T12:50:14.794Z,61.99
2022-12-29T12:51:14.969Z,65.20
2022-12-29T12:52:14.864Z,62.68
2022-12-29T12:53:14.797Z,59.80
2022-12-29T12:54:14.815Z,62.00
2022-12-29T12:55:15.677Z,62.89
2022-12-29T12:56:16.166Z,61.87
2022-12-29T12:57:14.752Z,62.71
2022-12-29T12:58:14.743Z,61.50
2022-12-29T12:59:15.443Z,63.58
2022-12-29T13:00:14.778Z,63.27
2022-12-29T13:01:15.813Z,61.60
2022-12-29T13:02:16.095Z,62.48
2022-12-29T13:03:15.100Z,63.36
2022-12-29T13:04:14.722Z,62.57
2022-12-29T13:05:14.962Z,62.41
2022-12-29T13:06:14.750Z,62.66
2022-12-29T13:07:14.633Z,64.13
2022-12-29T13:08:14.801Z,63.24
2022-12-29T13:09:14.656Z,61.60
2022-12-29T13:10:14.670Z,64.76
2022-12-29T13:11:14.646Z,62.83
2022-12-29T13:12:14.781Z,64.99
2022-12-29T13:13:15.097Z,62.30
2022-12-29T13:14:14.579Z,59.45
2022-12-29T13:15:14.630Z,61.52
2022-12-29T13:16:15.000Z,63.23
2022-12-29T13:17:15.604Z,62.56
2022-12-29T13:18:14.538Z,62.05
2022-12-29T13:19:14.581Z,63.64
2022-12-29T13:20:14.524Z,61.61
2022-12-29T13:21:14.578Z,62.73
2022-12-29T13:22:15.765Z,64.12
2022-12-29T13:23:14.538Z,62.19
2022-12-29T13:24:14.540Z,63.41
2022-12-29T13:25:14.507Z,64.13
2022-12-29T13:26:14.650Z,62.39
2022-12-29T13:27:14.533Z,63.34
2022-12-29T13:28:14.459Z,62.74
2022-12-29T13:29:14.488Z,64.04
2022-12-29T13:30:14.530Z,64.55
2022-12-29T13:31:14.779Z,63.42